Terminal Aerodrome Forecast
Issued by NWS

Home | Current Version | Previous Version | Graphics & Text | Print | Product List | Glossary On
Versions: 1 2 3 4 5 6 7 8 9 10 11 12 13 14 15
000
FTUS43 KGRB 020500
TAFCWA
TAF
KCWA 020520Z 0206/0306 22004KT P6SM BKN050
     FM021200 21004KT P6SM SCT050
     FM021600 24009KT P6SM SCT060
     FM030100 20005KT P6SM SCT060
      AMD LTD TO CLD VIS AND WIND TIL 021200=

USA.gov is the U.S. government's official web portal to all federal, state and local government web resources and services.